Salt Lake City, Utah
Traffic Map
Current Weather Conditions
Salt Lake City, Utah
Scattered Clouds
Scattered Clouds
57°
Feels Like: 57°
Wind Chill: 57° Ceiling: Unl
Heat Index: 57° Visibility: 10mi
Dew Point: 26° Wind: 5mph
Humidity: 30% Direction: 300° (WNW)
Pressure: 30.29in Gusts: 0mph
Raw Report DataKSLC 171654Z 30004KT 10SM SCT250 14/M03 A3029 RMK AO2 SLP237 T01391033 $
Traffic Incident Summary
Active as of:
Severity:
Category:
InformationThere was an issue retrieving the traffic information for this location. Please try a different location or try again shortly.
Advertisements